sensor_id;sensor_type;location;lat;lon;timestamp;temperature;humidity
12470;DHT22;36499;46.484;13.832;2023-01-10T00:00:51;1.70;99.90
12470;DHT22;36499;46.484;13.832;2023-01-10T00:03:18;1.80;99.90
12470;DHT22;36499;46.484;13.832;2023-01-10T00:05:45;1.70;99.90
12470;DHT22;36499;46.484;13.832;2023-01-10T00:08:16;1.80;99.90
12470;DHT22;36499;46.484;13.832;2023-01-10T00:10:44;1.80;99.90
12470;DHT22;36499;46.484;13.832;2023-01-10T00:13:15;1.70;99.90
12470;DHT22;36499;46.484;13.832;2023-01-10T00:15:51;1.70;99.90
12470;DHT22;36499;46.484;13.832;2023-01-10T00:18:20;1.70;99.90
12470;DHT22;36499;46.484;13.832;2023-01-10T00:20:47;1.70;99.90
12470;DHT22;36499;46.484;13.832;2023-01-10T00:23:16;1.80;99.90
12470;DHT22;36499;46.484;13.832;2023-01-10T00:25:47;1.80;99.90
12470;DHT22;36499;46.484;13.832;2023-01-10T00:28:16;1.80;99.90
12470;DHT22;36499;46.484;13.832;2023-01-10T00:30:47;1.80;99.90
12470;DHT22;36499;46.484;13.832;2023-01-10T00:33:21;1.80;99.90
12470;DHT22;36499;46.484;13.832;2023-01-10T00:35:48;1.80;99.90
12470;DHT22;36499;46.484;13.832;2023-01-10T00:38:15;1.70;99.90
12470;DHT22;36499;46.484;13.832;2023-01-10T00:40:44;1.70;99.90
12470;DHT22;36499;46.484;13.832;2023-01-10T00:43:11;1.70;99.90
12470;DHT22;36499;46.484;13.832;2023-01-10T00:45:57;1.70;99.90
12470;DHT22;36499;46.484;13.832;2023-01-10T00:48:24;1.70;99.90
12470;DHT22;36499;46.484;13.832;2023-01-10T00:50:51;1.70;99.90
12470;DHT22;36499;46.484;13.832;2023-01-10T00:53:18;1.70;99.90
12470;DHT22;36499;46.484;13.832;2023-01-10T00:55:46;1.80;99.90
12470;DHT22;36499;46.484;13.832;2023-01-10T00:58:14;1.80;99.90
12470;DHT22;36499;46.484;13.832;2023-01-10T01:00:42;1.80;99.90
12470;DHT22;36499;46.484;13.832;2023-01-10T01:03:12;1.90;99.90
12470;DHT22;36499;46.484;13.832;2023-01-10T01:05:40;1.90;99.90
12470;DHT22;36499;46.484;13.832;2023-01-10T01:08:07;1.90;99.90
12470;DHT22;36499;46.484;13.832;2023-01-10T01:10:36;2.00;99.90
12470;DHT22;36499;46.484;13.832;2023-01-10T01:13:07;2.00;99.90
12470;DHT22;36499;46.484;13.832;2023-01-10T01:15:37;2.00;99.90
12470;DHT22;36499;46.484;13.832;2023-01-10T01:18:05;2.00;99.90
12470;DHT22;36499;46.484;13.832;2023-01-10T01:20:33;1.90;99.90
12470;DHT22;36499;46.484;13.832;2023-01-10T01:23:01;1.80;99.90
12470;DHT22;36499;46.484;13.832;2023-01-10T01:25:28;1.80;99.90
12470;DHT22;36499;46.484;13.832;2023-01-10T01:27:55;1.90;99.90
12470;DHT22;36499;46.484;13.832;2023-01-10T01:30:22;1.90;99.90
12470;DHT22;36499;46.484;13.832;2023-01-10T01:32:49;1.90;99.90
12470;DHT22;36499;46.484;13.832;2023-01-10T01:35:16;1.90;99.90
12470;DHT22;36499;46.484;13.832;2023-01-10T01:37:45;1.90;99.90
12470;DHT22;36499;46.484;13.832;2023-01-10T01:40:13;1.80;99.90
12470;DHT22;36499;46.484;13.832;2023-01-10T01:42:43;1.80;99.90
12470;DHT22;36499;46.484;13.832;2023-01-10T01:45:36;1.70;99.90
12470;DHT22;36499;46.484;13.832;2023-01-10T01:48:11;1.60;99.90
12470;DHT22;36499;46.484;13.832;2023-01-10T01:50:45;1.60;99.90
12470;DHT22;36499;46.484;13.832;2023-01-10T01:53:22;1.70;99.90
12470;DHT22;36499;46.484;13.832;2023-01-10T01:55:53;1.70;99.90
12470;DHT22;36499;46.484;13.832;2023-01-10T01:58:27;1.80;99.90
12470;DHT22;36499;46.484;13.832;2023-01-10T02:01:02;1.90;99.90
12470;DHT22;36499;46.484;13.832;2023-01-10T02:03:29;2.00;99.90
12470;DHT22;36499;46.484;13.832;2023-01-10T02:05:57;2.00;99.90
12470;DHT22;36499;46.484;13.832;2023-01-10T02:08:26;2.10;99.90
12470;DHT22;36499;46.484;13.832;2023-01-10T02:10:58;2.10;99.90
12470;DHT22;36499;46.484;13.832;2023-01-10T02:13:34;2.10;99.90
12470;DHT22;36499;46.484;13.832;2023-01-10T02:16:07;2.00;99.90
12470;DHT22;36499;46.484;13.832;2023-01-10T02:18:36;1.90;99.90
12470;DHT22;36499;46.484;13.832;2023-01-10T02:21:17;1.80;99.90
12470;DHT22;36499;46.484;13.832;2023-01-10T02:27:11;1.70;99.90
12470;DHT22;36499;46.484;13.832;2023-01-10T02:30:06;1.70;99.90
12470;DHT22;36499;46.484;13.832;2023-01-10T02:33:05;1.60;99.90
12470;DHT22;36499;46.484;13.832;2023-01-10T02:35:59;1.80;99.90
12470;DHT22;36499;46.484;13.832;2023-01-10T02:38:50;1.80;99.90
12470;DHT22;36499;46.484;13.832;2023-01-10T02:41:28;1.90;99.90
12470;DHT22;36499;46.484;13.832;2023-01-10T02:44:06;1.80;99.90
12470;DHT22;36499;46.484;13.832;2023-01-10T02:46:38;1.80;99.90
12470;DHT22;36499;46.484;13.832;2023-01-10T02:49:07;1.70;99.90
12470;DHT22;36499;46.484;13.832;2023-01-10T02:51:34;1.60;99.90
12470;DHT22;36499;46.484;13.832;2023-01-10T02:54:03;1.60;99.90
12470;DHT22;36499;46.484;13.832;2023-01-10T02:56:52;1.50;99.90
12470;DHT22;36499;46.484;13.832;2023-01-10T03:02:57;1.60;99.90
12470;DHT22;36499;46.484;13.832;2023-01-10T03:05:50;1.70;99.90
12470;DHT22;36499;46.484;13.832;2023-01-10T03:08:32;1.70;99.90
12470;DHT22;36499;46.484;13.832;2023-01-10T03:11:11;1.60;99.90
12470;DHT22;36499;46.484;13.832;2023-01-10T03:13:44;1.50;99.90
12470;DHT22;36499;46.484;13.832;2023-01-10T03:16:21;1.60;99.90
12470;DHT22;36499;46.484;13.832;2023-01-10T03:18:57;1.60;99.90
12470;DHT22;36499;46.484;13.832;2023-01-10T03:21:30;1.60;99.90
12470;DHT22;36499;46.484;13.832;2023-01-10T03:24:02;1.60;99.90
12470;DHT22;36499;46.484;13.832;2023-01-10T03:26:43;1.60;99.90
12470;DHT22;36499;46.484;13.832;2023-01-10T03:29:18;1.60;99.90
12470;DHT22;36499;46.484;13.832;2023-01-10T03:31:55;1.50;99.90
12470;DHT22;36499;46.484;13.832;2023-01-10T03:34:26;1.50;99.90
12470;DHT22;36499;46.484;13.832;2023-01-10T03:37:02;1.50;99.90
12470;DHT22;36499;46.484;13.832;2023-01-10T03:39:43;1.40;99.90
12470;DHT22;36499;46.484;13.832;2023-01-10T03:42:25;1.40;99.90
12470;DHT22;36499;46.484;13.832;2023-01-10T03:45:29;1.40;99.90
12470;DHT22;36499;46.484;13.832;2023-01-10T03:48:02;1.50;99.90
12470;DHT22;36499;46.484;13.832;2023-01-10T03:50:33;1.50;99.90
12470;DHT22;36499;46.484;13.832;2023-01-10T03:53:04;1.50;99.90
12470;DHT22;36499;46.484;13.832;2023-01-10T03:55:32;1.40;99.90
12470;DHT22;36499;46.484;13.832;2023-01-10T03:58:00;1.40;99.90
12470;DHT22;36499;46.484;13.832;2023-01-10T04:00:27;1.30;99.90
12470;DHT22;36499;46.484;13.832;2023-01-10T04:02:55;1.40;99.90
12470;DHT22;36499;46.484;13.832;2023-01-10T04:05:23;1.30;99.90
12470;DHT22;36499;46.484;13.832;2023-01-10T04:07:51;1.30;99.90
12470;DHT22;36499;46.484;13.832;2023-01-10T04:10:19;1.30;99.90
12470;DHT22;36499;46.484;13.832;2023-01-10T04:12:47;1.30;99.90
12470;DHT22;36499;46.484;13.832;2023-01-10T04:15:14;1.30;99.90
12470;DHT22;36499;46.484;13.832;2023-01-10T04:17:41;1.20;99.90
12470;DHT22;36499;46.484;13.832;2023-01-10T04:20:10;1.20;99.90
12470;DHT22;36499;46.484;13.832;2023-01-10T04:22:38;1.20;99.90
12470;DHT22;36499;46.484;13.832;2023-01-10T04:25:05;1.20;99.90
12470;DHT22;36499;46.484;13.832;2023-01-10T04:27:34;1.20;99.90
12470;DHT22;36499;46.484;13.832;2023-01-10T04:30:01;1.20;99.90
12470;DHT22;36499;46.484;13.832;2023-01-10T04:32:29;1.20;99.90
12470;DHT22;36499;46.484;13.832;2023-01-10T04:34:56;1.20;99.90
12470;DHT22;36499;46.484;13.832;2023-01-10T04:37:23;1.20;99.90
12470;DHT22;36499;46.484;13.832;2023-01-10T04:39:50;1.20;99.90
12470;DHT22;36499;46.484;13.832;2023-01-10T04:42:17;1.20;99.90
12470;DHT22;36499;46.484;13.832;2023-01-10T04:44:45;1.20;99.90
12470;DHT22;36499;46.484;13.832;2023-01-10T04:47:13;1.20;99.90
12470;DHT22;36499;46.484;13.832;2023-01-10T04:49:40;1.20;99.90
12470;DHT22;36499;46.484;13.832;2023-01-10T04:52:07;1.30;99.90
12470;DHT22;36499;46.484;13.832;2023-01-10T04:54:34;1.20;99.90
12470;DHT22;36499;46.484;13.832;2023-01-10T04:57:01;1.20;99.90
12470;DHT22;36499;46.484;13.832;2023-01-10T04:59:30;1.20;99.90
12470;DHT22;36499;46.484;13.832;2023-01-10T05:01:58;1.10;99.90
12470;DHT22;36499;46.484;13.832;2023-01-10T05:04:25;1.10;99.90
12470;DHT22;36499;46.484;13.832;2023-01-10T05:06:52;1.20;99.90
12470;DHT22;36499;46.484;13.832;2023-01-10T05:09:19;1.30;99.90
12470;DHT22;36499;46.484;13.832;2023-01-10T05:11:46;1.30;99.90
12470;DHT22;36499;46.484;13.832;2023-01-10T05:14:14;1.20;99.90
12470;DHT22;36499;46.484;13.832;2023-01-10T05:16:41;1.20;99.90
12470;DHT22;36499;46.484;13.832;2023-01-10T05:19:09;1.20;99.90
12470;DHT22;36499;46.484;13.832;2023-01-10T05:21:36;1.10;99.90
12470;DHT22;36499;46.484;13.832;2023-01-10T05:24:04;1.10;99.90
12470;DHT22;36499;46.484;13.832;2023-01-10T05:26:32;1.00;99.90
12470;DHT22;36499;46.484;13.832;2023-01-10T05:28:59;1.00;99.90
12470;DHT22;36499;46.484;13.832;2023-01-10T05:31:26;1.00;99.90
12470;DHT22;36499;46.484;13.832;2023-01-10T05:33:53;1.00;99.90
12470;DHT22;36499;46.484;13.832;2023-01-10T05:36:21;1.00;99.90
12470;DHT22;36499;46.484;13.832;2023-01-10T05:38:48;0.90;99.90
12470;DHT22;36499;46.484;13.832;2023-01-10T05:41:17;0.90;99.90
12470;DHT22;36499;46.484;13.832;2023-01-10T05:43:44;0.90;99.90
12470;DHT22;36499;46.484;13.832;2023-01-10T05:46:11;0.90;99.90
12470;DHT22;36499;46.484;13.832;2023-01-10T05:48:38;1.00;99.90
12470;DHT22;36499;46.484;13.832;2023-01-10T05:51:05;1.00;99.90
12470;DHT22;36499;46.484;13.832;2023-01-10T05:53:34;1.00;99.90
12470;DHT22;36499;46.484;13.832;2023-01-10T05:56:02;1.00;99.90
12470;DHT22;36499;46.484;13.832;2023-01-10T05:58:29;0.90;99.90
12470;DHT22;36499;46.484;13.832;2023-01-10T06:00:57;0.90;99.90
12470;DHT22;36499;46.484;13.832;2023-01-10T06:03:25;0.70;99.90
12470;DHT22;36499;46.484;13.832;2023-01-10T06:05:52;0.70;99.90
12470;DHT22;36499;46.484;13.832;2023-01-10T06:08:20;0.70;99.90
12470;DHT22;36499;46.484;13.832;2023-01-10T06:10:49;0.70;99.90
12470;DHT22;36499;46.484;13.832;2023-01-10T06:13:16;0.60;99.90
12470;DHT22;36499;46.484;13.832;2023-01-10T06:15:43;0.60;99.90
12470;DHT22;36499;46.484;13.832;2023-01-10T06:18:10;0.50;99.90
12470;DHT22;36499;46.484;13.832;2023-01-10T06:20:37;0.50;99.90
12470;DHT22;36499;46.484;13.832;2023-01-10T06:23:05;0.50;99.90
12470;DHT22;36499;46.484;13.832;2023-01-10T06:25:33;0.50;99.90
12470;DHT22;36499;46.484;13.832;2023-01-10T06:28:03;0.50;99.90
12470;DHT22;36499;46.484;13.832;2023-01-10T06:30:31;0.50;99.90
12470;DHT22;36499;46.484;13.832;2023-01-10T06:33:00;0.50;99.90
12470;DHT22;36499;46.484;13.832;2023-01-10T06:35:28;0.50;99.90
12470;DHT22;36499;46.484;13.832;2023-01-10T06:37:55;0.50;99.90
12470;DHT22;36499;46.484;13.832;2023-01-10T06:40:23;0.60;99.90
12470;DHT22;36499;46.484;13.832;2023-01-10T06:42:51;0.50;99.90
12470;DHT22;36499;46.484;13.832;2023-01-10T06:45:20;0.50;99.90
12470;DHT22;36499;46.484;13.832;2023-01-10T06:47:47;0.50;99.90
12470;DHT22;36499;46.484;13.832;2023-01-10T06:50:14;0.50;99.90
12470;DHT22;36499;46.484;13.832;2023-01-10T06:52:41;0.50;99.90
12470;DHT22;36499;46.484;13.832;2023-01-10T06:55:09;0.50;99.90
12470;DHT22;36499;46.484;13.832;2023-01-10T06:57:36;0.50;99.90
12470;DHT22;36499;46.484;13.832;2023-01-10T07:00:05;0.50;99.90
12470;DHT22;36499;46.484;13.832;2023-01-10T07:02:35;0.60;99.90
12470;DHT22;36499;46.484;13.832;2023-01-10T07:05:03;0.60;99.90
12470;DHT22;36499;46.484;13.832;2023-01-10T07:07:31;0.50;99.90
12470;DHT22;36499;46.484;13.832;2023-01-10T07:10:09;0.50;99.90
12470;DHT22;36499;46.484;13.832;2023-01-10T07:12:41;0.50;99.90
12470;DHT22;36499;46.484;13.832;2023-01-10T07:15:09;0.40;99.90
12470;DHT22;36499;46.484;13.832;2023-01-10T07:17:39;0.40;99.90
12470;DHT22;36499;46.484;13.832;2023-01-10T07:20:07;0.40;99.90
12470;DHT22;36499;46.484;13.832;2023-01-10T07:22:35;0.40;99.90
12470;DHT22;36499;46.484;13.832;2023-01-10T07:25:02;0.40;99.90
12470;DHT22;36499;46.484;13.832;2023-01-10T07:27:31;0.50;99.90
12470;DHT22;36499;46.484;13.832;2023-01-10T07:29:59;0.50;99.90
12470;DHT22;36499;46.484;13.832;2023-01-10T07:32:26;0.50;99.90
12470;DHT22;36499;46.484;13.832;2023-01-10T07:34:55;0.50;99.90
12470;DHT22;36499;46.484;13.832;2023-01-10T07:37:22;0.50;99.90
12470;DHT22;36499;46.484;13.832;2023-01-10T07:39:49;0.50;99.90
12470;DHT22;36499;46.484;13.832;2023-01-10T07:42:16;0.50;99.90
12470;DHT22;36499;46.484;13.832;2023-01-10T07:44:44;0.70;99.90
12470;DHT22;36499;46.484;13.832;2023-01-10T07:47:11;0.60;99.90
12470;DHT22;36499;46.484;13.832;2023-01-10T07:49:38;0.60;99.90
12470;DHT22;36499;46.484;13.832;2023-01-10T07:52:06;0.70;99.90
12470;DHT22;36499;46.484;13.832;2023-01-10T07:54:35;0.70;99.90
12470;DHT22;36499;46.484;13.832;2023-01-10T07:57:02;0.80;99.90
12470;DHT22;36499;46.484;13.832;2023-01-10T07:59:29;0.90;99.90
12470;DHT22;36499;46.484;13.832;2023-01-10T08:01:56;0.90;99.90
12470;DHT22;36499;46.484;13.832;2023-01-10T08:04:23;0.90;99.90
12470;DHT22;36499;46.484;13.832;2023-01-10T08:06:53;1.00;99.90
12470;DHT22;36499;46.484;13.832;2023-01-10T08:09:22;0.90;99.90
12470;DHT22;36499;46.484;13.832;2023-01-10T08:11:49;0.90;99.90
12470;DHT22;36499;46.484;13.832;2023-01-10T08:14:16;1.00;99.90
12470;DHT22;36499;46.484;13.832;2023-01-10T08:16:43;1.00;99.90
12470;DHT22;36499;46.484;13.832;2023-01-10T08:19:10;1.00;99.90
12470;DHT22;36499;46.484;13.832;2023-01-10T08:21:41;1.00;99.90
12470;DHT22;36499;46.484;13.832;2023-01-10T08:24:08;1.00;99.90
12470;DHT22;36499;46.484;13.832;2023-01-10T08:26:37;1.00;99.90
12470;DHT22;36499;46.484;13.832;2023-01-10T08:29:04;1.00;99.90
12470;DHT22;36499;46.484;13.832;2023-01-10T08:31:31;1.00;99.90
12470;DHT22;36499;46.484;13.832;2023-01-10T08:33:58;1.00;99.90
12470;DHT22;36499;46.484;13.832;2023-01-10T08:36:25;1.00;99.90
12470;DHT22;36499;46.484;13.832;2023-01-10T08:38:54;1.00;99.90
12470;DHT22;36499;46.484;13.832;2023-01-10T08:41:21;1.00;99.90
12470;DHT22;36499;46.484;13.832;2023-01-10T08:43:51;1.00;99.90
12470;DHT22;36499;46.484;13.832;2023-01-10T08:46:19;0.90;99.90
12470;DHT22;36499;46.484;13.832;2023-01-10T08:48:46;1.00;99.90
12470;DHT22;36499;46.484;13.832;2023-01-10T08:51:15;1.00;99.90
12470;DHT22;36499;46.484;13.832;2023-01-10T08:53:44;1.00;99.90
12470;DHT22;36499;46.484;13.832;2023-01-10T08:56:11;1.00;99.90
12470;DHT22;36499;46.484;13.832;2023-01-10T08:58:38;1.00;99.90
12470;DHT22;36499;46.484;13.832;2023-01-10T09:01:07;1.00;99.90
12470;DHT22;36499;46.484;13.832;2023-01-10T09:03:36;1.00;99.90
12470;DHT22;36499;46.484;13.832;2023-01-10T09:06:05;1.00;99.90
12470;DHT22;36499;46.484;13.832;2023-01-10T09:08:34;1.00;99.90
12470;DHT22;36499;46.484;13.832;2023-01-10T09:11:02;1.00;99.90
12470;DHT22;36499;46.484;13.832;2023-01-10T09:13:30;1.00;99.90
12470;DHT22;36499;46.484;13.832;2023-01-10T09:15:58;1.00;99.90
12470;DHT22;36499;46.484;13.832;2023-01-10T09:18:27;1.00;99.90
12470;DHT22;36499;46.484;13.832;2023-01-10T09:20:54;1.00;99.90
12470;DHT22;36499;46.484;13.832;2023-01-10T09:23:22;1.00;99.90
12470;DHT22;36499;46.484;13.832;2023-01-10T09:25:51;1.00;99.90
12470;DHT22;36499;46.484;13.832;2023-01-10T09:28:21;1.00;99.90
12470;DHT22;36499;46.484;13.832;2023-01-10T09:30:49;1.00;99.90
12470;DHT22;36499;46.484;13.832;2023-01-10T09:33:16;1.10;99.90
12470;DHT22;36499;46.484;13.832;2023-01-10T09:35:46;1.00;99.90
12470;DHT22;36499;46.484;13.832;2023-01-10T09:38:14;1.10;99.90
12470;DHT22;36499;46.484;13.832;2023-01-10T09:40:53;1.20;99.90
12470;DHT22;36499;46.484;13.832;2023-01-10T09:43:39;1.20;99.90
12470;DHT22;36499;46.484;13.832;2023-01-10T09:46:26;1.20;99.90
12470;DHT22;36499;46.484;13.832;2023-01-10T09:49:09;1.30;99.90
12470;DHT22;36499;46.484;13.832;2023-01-10T09:51:52;1.40;99.90
12470;DHT22;36499;46.484;13.832;2023-01-10T09:54:25;1.60;99.90
12470;DHT22;36499;46.484;13.832;2023-01-10T09:56:55;1.60;99.90
12470;DHT22;36499;46.484;13.832;2023-01-10T09:59:28;1.60;99.90
12470;DHT22;36499;46.484;13.832;2023-01-10T10:02:14;1.60;99.90
12470;DHT22;36499;46.484;13.832;2023-01-10T10:04:58;1.60;99.90
12470;DHT22;36499;46.484;13.832;2023-01-10T10:07:37;1.70;99.90
12470;DHT22;36499;46.484;13.832;2023-01-10T10:10:06;1.80;99.90
12470;DHT22;36499;46.484;13.832;2023-01-10T10:12:44;1.90;99.90
12470;DHT22;36499;46.484;13.832;2023-01-10T10:15:25;2.00;99.90
12470;DHT22;36499;46.484;13.832;2023-01-10T10:18:09;2.20;99.90
12470;DHT22;36499;46.484;13.832;2023-01-10T10:20:53;2.20;99.90
12470;DHT22;36499;46.484;13.832;2023-01-10T10:23:59;2.30;99.90
12470;DHT22;36499;46.484;13.832;2023-01-10T10:26:43;2.50;99.90
12470;DHT22;36499;46.484;13.832;2023-01-10T10:29:37;2.60;99.90
12470;DHT22;36499;46.484;13.832;2023-01-10T10:32:41;2.60;99.90
12470;DHT22;36499;46.484;13.832;2023-01-10T10:35:30;2.60;99.90
12470;DHT22;36499;46.484;13.832;2023-01-10T10:38:07;2.60;99.90
12470;DHT22;36499;46.484;13.832;2023-01-10T10:40:42;2.80;99.90
12470;DHT22;36499;46.484;13.832;2023-01-10T10:43:15;2.90;99.90
12470;DHT22;36499;46.484;13.832;2023-01-10T10:45:59;3.10;99.90
12470;DHT22;36499;46.484;13.832;2023-01-10T10:48:31;3.10;99.90
12470;DHT22;36499;46.484;13.832;2023-01-10T10:51:06;3.20;99.90
12470;DHT22;36499;46.484;13.832;2023-01-10T10:53:38;3.20;99.90
12470;DHT22;36499;46.484;13.832;2023-01-10T10:56:12;3.30;99.90
12470;DHT22;36499;46.484;13.832;2023-01-10T10:58:45;3.40;99.90
12470;DHT22;36499;46.484;13.832;2023-01-10T11:01:16;3.40;99.90
12470;DHT22;36499;46.484;13.832;2023-01-10T11:03:47;3.30;99.90
12470;DHT22;36499;46.484;13.832;2023-01-10T11:06:19;3.30;99.90
12470;DHT22;36499;46.484;13.832;2023-01-10T11:08:51;3.30;99.90
12470;DHT22;36499;46.484;13.832;2023-01-10T11:11:26;3.20;99.90
12470;DHT22;36499;46.484;13.832;2023-01-10T11:13:55;3.20;99.90
12470;DHT22;36499;46.484;13.832;2023-01-10T11:16:27;3.20;99.90
12470;DHT22;36499;46.484;13.832;2023-01-10T11:19:12;3.30;99.90
12470;DHT22;36499;46.484;13.832;2023-01-10T11:21:46;3.20;99.90
12470;DHT22;36499;46.484;13.832;2023-01-10T11:24:25;3.20;99.90
12470;DHT22;36499;46.484;13.832;2023-01-10T11:26:58;3.10;99.90
12470;DHT22;36499;46.484;13.832;2023-01-10T11:29:35;3.10;99.90
12470;DHT22;36499;46.484;13.832;2023-01-10T11:32:11;3.10;99.90
12470;DHT22;36499;46.484;13.832;2023-01-10T11:34:41;3.10;99.90
12470;DHT22;36499;46.484;13.832;2023-01-10T11:37:20;3.30;99.90
12470;DHT22;36499;46.484;13.832;2023-01-10T11:40:17;3.40;99.90
12470;DHT22;36499;46.484;13.832;2023-01-10T11:42:53;3.40;99.90
12470;DHT22;36499;46.484;13.832;2023-01-10T11:45:25;3.60;99.90
12470;DHT22;36499;46.484;13.832;2023-01-10T11:48:05;3.70;99.90
12470;DHT22;36499;46.484;13.832;2023-01-10T11:50:36;3.80;99.90
12470;DHT22;36499;46.484;13.832;2023-01-10T11:53:05;3.90;99.90
12470;DHT22;36499;46.484;13.832;2023-01-10T11:55:52;4.00;99.90
12470;DHT22;36499;46.484;13.832;2023-01-10T11:58:21;4.40;99.90
12470;DHT22;36499;46.484;13.832;2023-01-10T12:00:48;4.80;99.90
12470;DHT22;36499;46.484;13.832;2023-01-10T12:03:20;5.10;99.90
12470;DHT22;36499;46.484;13.832;2023-01-10T12:05:53;5.10;99.90
12470;DHT22;36499;46.484;13.832;2023-01-10T12:08:30;5.00;99.90
12470;DHT22;36499;46.484;13.832;2023-01-10T12:11:02;4.80;99.90
12470;DHT22;36499;46.484;13.832;2023-01-10T12:13:45;4.60;99.90
12470;DHT22;36499;46.484;13.832;2023-01-10T12:16:19;4.60;99.90
12470;DHT22;36499;46.484;13.832;2023-01-10T12:18:51;4.60;99.90
12470;DHT22;36499;46.484;13.832;2023-01-10T12:21:28;4.50;99.90
12470;DHT22;36499;46.484;13.832;2023-01-10T12:24:03;4.60;99.90
12470;DHT22;36499;46.484;13.832;2023-01-10T12:26:41;4.70;99.90
12470;DHT22;36499;46.484;13.832;2023-01-10T12:29:16;4.80;99.90
12470;DHT22;36499;46.484;13.832;2023-01-10T12:31:50;4.70;99.90
12470;DHT22;36499;46.484;13.832;2023-01-10T12:34:23;4.80;99.90
12470;DHT22;36499;46.484;13.832;2023-01-10T12:36:58;4.80;99.90
12470;DHT22;36499;46.484;13.832;2023-01-10T12:39:33;5.00;99.90
12470;DHT22;36499;46.484;13.832;2023-01-10T12:42:15;5.10;99.90
12470;DHT22;36499;46.484;13.832;2023-01-10T12:45:11;5.20;99.40
12470;DHT22;36499;46.484;13.832;2023-01-10T12:47:51;5.40;98.50
12470;DHT22;36499;46.484;13.832;2023-01-10T12:50:27;5.40;99.40
12470;DHT22;36499;46.484;13.832;2023-01-10T12:53:01;5.40;99.90
12470;DHT22;36499;46.484;13.832;2023-01-10T12:55:38;5.30;99.90
12470;DHT22;36499;46.484;13.832;2023-01-10T12:58:13;5.30;99.90
12470;DHT22;36499;46.484;13.832;2023-01-10T13:00:50;5.00;99.90
12470;DHT22;36499;46.484;13.832;2023-01-10T13:03:21;4.90;99.90
12470;DHT22;36499;46.484;13.832;2023-01-10T13:05:53;4.80;99.90
12470;DHT22;36499;46.484;13.832;2023-01-10T13:08:25;4.70;99.90
12470;DHT22;36499;46.484;13.832;2023-01-10T13:10:57;4.70;99.90
12470;DHT22;36499;46.484;13.832;2023-01-10T13:13:32;4.80;99.90
12470;DHT22;36499;46.484;13.832;2023-01-10T13:16:25;4.90;99.90
12470;DHT22;36499;46.484;13.832;2023-01-10T13:19:02;5.00;98.20
12470;DHT22;36499;46.484;13.832;2023-01-10T13:21:32;5.00;99.90
12470;DHT22;36499;46.484;13.832;2023-01-10T13:24:02;5.20;96.30
12470;DHT22;36499;46.484;13.832;2023-01-10T13:26:59;5.40;96.20
12470;DHT22;36499;46.484;13.832;2023-01-10T13:29:36;5.60;95.30
12470;DHT22;36499;46.484;13.832;2023-01-10T13:32:20;5.70;93.10
12470;DHT22;36499;46.484;13.832;2023-01-10T13:34:49;5.80;91.00
12470;DHT22;36499;46.484;13.832;2023-01-10T13:37:22;5.90;91.40
12470;DHT22;36499;46.484;13.832;2023-01-10T13:39:52;5.90;92.00
12470;DHT22;36499;46.484;13.832;2023-01-10T13:42:28;5.90;91.20
12470;DHT22;36499;46.484;13.832;2023-01-10T13:45:23;5.80;90.40
12470;DHT22;36499;46.484;13.832;2023-01-10T13:51:14;5.80;88.50
12470;DHT22;36499;46.484;13.832;2023-01-10T13:53:56;5.80;88.80
12470;DHT22;36499;46.484;13.832;2023-01-10T13:56:34;5.80;88.00
12470;DHT22;36499;46.484;13.832;2023-01-10T13:59:11;5.80;88.30
12470;DHT22;36499;46.484;13.832;2023-01-10T14:01:58;5.90;86.30
12470;DHT22;36499;46.484;13.832;2023-01-10T14:04:49;5.90;85.80
12470;DHT22;36499;46.484;13.832;2023-01-10T14:07:25;5.90;85.00
12470;DHT22;36499;46.484;13.832;2023-01-10T14:09:59;5.90;85.90
12470;DHT22;36499;46.484;13.832;2023-01-10T14:12:32;5.80;85.20
12470;DHT22;36499;46.484;13.832;2023-01-10T14:15:18;5.70;83.50
12470;DHT22;36499;46.484;13.832;2023-01-10T14:17:58;5.70;90.20
12470;DHT22;36499;46.484;13.832;2023-01-10T14:20:30;5.60;88.40
12470;DHT22;36499;46.484;13.832;2023-01-10T14:23:02;5.50;89.60
12470;DHT22;36499;46.484;13.832;2023-01-10T14:25:35;5.40;92.00
12470;DHT22;36499;46.484;13.832;2023-01-10T14:28:04;5.30;92.40
12470;DHT22;36499;46.484;13.832;2023-01-10T14:30:57;5.20;92.60
12470;DHT22;36499;46.484;13.832;2023-01-10T14:33:28;5.10;90.50
12470;DHT22;36499;46.484;13.832;2023-01-10T14:36:02;5.00;91.30
12470;DHT22;36499;46.484;13.832;2023-01-10T14:38:39;4.90;92.50
12470;DHT22;36499;46.484;13.832;2023-01-10T14:41:23;4.90;94.80
12470;DHT22;36499;46.484;13.832;2023-01-10T14:43:59;4.80;95.60
12470;DHT22;36499;46.484;13.832;2023-01-10T14:46:42;4.70;97.50
12470;DHT22;36499;46.484;13.832;2023-01-10T14:49:32;4.50;98.00
12470;DHT22;36499;46.484;13.832;2023-01-10T14:52:17;4.30;99.90
12470;DHT22;36499;46.484;13.832;2023-01-10T14:54:46;4.10;99.90
12470;DHT22;36499;46.484;13.832;2023-01-10T14:57:30;3.90;99.90
12470;DHT22;36499;46.484;13.832;2023-01-10T15:00:05;3.70;99.90
12470;DHT22;36499;46.484;13.832;2023-01-10T15:02:42;3.70;99.90
12470;DHT22;36499;46.484;13.832;2023-01-10T15:05:17;3.60;99.90
12470;DHT22;36499;46.484;13.832;2023-01-10T15:07:48;3.50;99.90
12470;DHT22;36499;46.484;13.832;2023-01-10T15:10:21;3.40;99.90
12470;DHT22;36499;46.484;13.832;2023-01-10T15:12:52;3.40;99.90
12470;DHT22;36499;46.484;13.832;2023-01-10T15:15:26;3.40;99.90
12470;DHT22;36499;46.484;13.832;2023-01-10T15:17:57;3.10;99.90
12470;DHT22;36499;46.484;13.832;2023-01-10T15:20:26;3.00;99.90
12470;DHT22;36499;46.484;13.832;2023-01-10T15:22:57;2.90;99.90
12470;DHT22;36499;46.484;13.832;2023-01-10T15:25:28;2.80;99.90
12470;DHT22;36499;46.484;13.832;2023-01-10T15:27:57;2.70;99.90
12470;DHT22;36499;46.484;13.832;2023-01-10T15:30:29;2.70;99.90
12470;DHT22;36499;46.484;13.832;2023-01-10T15:33:03;2.60;99.90
12470;DHT22;36499;46.484;13.832;2023-01-10T15:35:52;2.60;99.90
12470;DHT22;36499;46.484;13.832;2023-01-10T15:38:29;2.50;99.90
12470;DHT22;36499;46.484;13.832;2023-01-10T15:41:01;2.40;99.90
12470;DHT22;36499;46.484;13.832;2023-01-10T15:43:31;2.40;99.90
12470;DHT22;36499;46.484;13.832;2023-01-10T15:46:00;2.30;99.90
12470;DHT22;36499;46.484;13.832;2023-01-10T15:48:32;2.40;99.90
12470;DHT22;36499;46.484;13.832;2023-01-10T15:51:02;2.20;99.90
12470;DHT22;36499;46.484;13.832;2023-01-10T15:53:52;2.30;99.90
12470;DHT22;36499;46.484;13.832;2023-01-10T15:56:34;2.40;99.90
12470;DHT22;36499;46.484;13.832;2023-01-10T15:59:27;2.40;99.90
12470;DHT22;36499;46.484;13.832;2023-01-10T16:02:02;2.30;99.90
12470;DHT22;36499;46.484;13.832;2023-01-10T16:04:42;2.20;99.90
12470;DHT22;36499;46.484;13.832;2023-01-10T16:07:15;2.10;99.90
12470;DHT22;36499;46.484;13.832;2023-01-10T16:09:52;2.00;99.90
12470;DHT22;36499;46.484;13.832;2023-01-10T16:12:27;1.90;99.90
12470;DHT22;36499;46.484;13.832;2023-01-10T16:15:18;1.80;99.90